Main page
Satellite images 15-day forecastsClimateMarine weather Cyclones Lightning AirportsFAQ Newsletter About
Weather : Europe Africa North America South America Asia Australia-Oceania Others
Languages Contact

Milan, Italy

Malpensa

latitude: 45-37N, longitude: 008-44E, elevation: 234 m


METAR: LIMC 221720Z 26003KT 9999 SCT080 24/17 Q1009 NOSIG
short-TAF: out of date (6082 hours)
long-TAF: LIMC 221700Z 2218/2324 35006KT 9999 SCT035 SCT080 TEMPO 2315/2324 TSRA

Time: 19:26 (17:26 UTC)

Current weather observation

The report was made 6 minutes ago, at 17:20 UTC  
Wind 03 kt from the West
Temperature 24°C
Humidity 65%
Pressure 1009 hPa
Visibility 10 km or more
Scattered clouds at a height of 8000 ft

Change units

Forecast

The report was made 5 minutes ago, at 17:21 UTC  
Forecast valid from 22 at 18 UTC to 23 at 24 UTC
Wind 06 kt from the North
Visibility 10 km or more
Scattered clouds at a height of 3500 ft
Scattered clouds at a height of 8000 ft
Temporary
from 23 at 15 UTC to 23 at 24 UTC
thunderstorm rain
The information on this site is subject to a disclaimer
Weather : Europe Africa North America South America Asia Australia-Oceania Others
Satellite images 15-day forecastsClimateMarine weather Cyclones Lightning AirportsFAQ Languages Contact Newsletter About